createdAt,value
2023-02-12T00:02:30.738Z,100.00
2023-02-12T00:05:35.496Z,100.00
2023-02-12T00:08:35.578Z,100.00
2023-02-12T00:11:41.508Z,100.00
2023-02-12T00:14:41.548Z,100.00
2023-02-12T00:17:42.560Z,100.00
2023-02-12T00:20:43.550Z,100.00
2023-02-12T00:23:43.548Z,100.00
2023-02-12T00:26:44.837Z,100.00
2023-02-12T00:29:44.524Z,100.00
2023-02-12T00:32:44.571Z,100.00
2023-02-12T00:35:44.643Z,100.00
2023-02-12T00:38:44.659Z,100.00
2023-02-12T00:41:45.701Z,100.00
2023-02-12T00:44:45.562Z,100.00
2023-02-12T00:47:45.602Z,100.00
2023-02-12T00:50:46.583Z,100.00
2023-02-12T00:53:47.621Z,100.00
2023-02-12T00:56:48.619Z,100.00
2023-02-12T01:00:08.661Z,100.00
2023-02-12T01:03:08.572Z,100.00
2023-02-12T01:06:09.600Z,100.00
2023-02-12T01:09:15.619Z,100.00
2023-02-12T01:12:15.646Z,100.00
2023-02-12T01:15:19.661Z,100.00
2023-02-12T01:18:27.676Z,100.00
2023-02-12T01:21:30.701Z,100.00
2023-02-12T01:24:30.663Z,100.00
2023-02-12T01:27:30.633Z,100.00
2023-02-12T01:30:30.670Z,100.00
2023-02-12T01:33:30.742Z,100.00
2023-02-12T01:36:30.688Z,100.00
2023-02-12T01:39:32.774Z,100.00
2023-02-12T01:42:32.677Z,100.00
2023-02-12T01:45:35.671Z,100.00
2023-02-12T01:48:36.691Z,100.00
2023-02-12T01:51:39.169Z,100.00
2023-02-12T01:54:40.691Z,100.00
2023-02-12T01:57:41.765Z,100.00
2023-02-12T02:00:42.724Z,100.00
2023-02-12T02:03:43.746Z,100.00
2023-02-12T02:06:55.772Z,100.00
2023-02-12T02:09:55.756Z,100.00
2023-02-12T02:13:13.928Z,100.00
2023-02-12T02:16:39.941Z,100.00
2023-02-12T02:19:59.744Z,100.00
2023-02-12T02:23:05.729Z,100.00
2023-02-12T02:26:35.818Z,100.00
2023-02-12T02:30:02.794Z,100.00
2023-02-12T02:33:12.778Z,100.00
2023-02-12T02:36:54.445Z,100.00
2023-02-12T02:40:17.790Z,100.00
2023-02-12T02:43:22.803Z,100.00
2023-02-12T02:46:44.875Z,100.00
2023-02-12T02:49:59.843Z,100.00
2023-02-12T02:53:19.282Z,100.00
2023-02-12T02:56:22.854Z,100.00
2023-02-12T02:59:37.832Z,100.00
2023-02-12T03:02:42.848Z,100.00
2023-02-12T03:05:46.011Z,100.00
2023-02-12T03:08:47.794Z,100.00
2023-02-12T03:11:47.845Z,100.00
2023-02-12T03:14:56.091Z,100.00
2023-02-12T03:17:59.828Z,100.00
2023-02-12T03:21:03.804Z,100.00
2023-02-12T03:24:08.886Z,100.00
2023-02-12T03:27:33.861Z,100.00
2023-02-12T03:30:33.942Z,100.00
2023-02-12T03:33:42.880Z,100.00
2023-02-12T03:36:49.085Z,100.00
2023-02-12T03:39:57.197Z,100.00
2023-02-12T03:42:57.905Z,100.00
2023-02-12T03:46:11.170Z,100.00
2023-02-12T03:50:02.924Z,100.00
2023-02-12T03:53:05.907Z,100.00
2023-02-12T03:56:08.933Z,100.00
2023-02-12T03:59:08.926Z,100.00
2023-02-12T04:02:10.019Z,100.00
2023-02-12T04:05:10.906Z,100.00
2023-02-12T04:08:12.929Z,100.00
2023-02-12T04:11:15.965Z,100.00
2023-02-12T04:14:41.986Z,100.00
2023-02-12T04:18:02.980Z,100.00
2023-02-12T04:21:32.020Z,100.00
2023-02-12T04:24:32.016Z,100.00
2023-02-12T04:28:12.007Z,100.00
2023-02-12T04:31:19.001Z,100.00
2023-02-12T04:34:41.994Z,100.00
2023-02-12T04:37:43.987Z,98.69
2023-02-12T04:40:45.495Z,98.24
2023-02-12T04:43:46.994Z,97.83
2023-02-12T04:46:47.943Z,96.64
2023-02-12T04:49:47.979Z,95.45
2023-02-12T04:52:48.227Z,93.89
2023-02-12T04:55:49.045Z,92.37
2023-02-12T04:58:54.028Z,91.00
2023-02-12T05:01:56.043Z,90.13
2023-02-12T05:04:56.250Z,88.56
2023-02-12T05:07:57.013Z,88.27
2023-02-12T05:10:58.005Z,88.40
2023-02-12T05:14:04.143Z,88.56
2023-02-12T05:17:05.196Z,88.46
2023-02-12T05:20:09.018Z,88.44
2023-02-12T05:23:11.072Z,88.67
2023-02-12T05:26:12.043Z,88.84
2023-02-12T05:29:13.091Z,88.69
2023-02-12T05:32:13.281Z,89.05
2023-02-12T05:35:13.037Z,88.75
2023-02-12T05:38:13.107Z,89.21
2023-02-12T05:41:18.081Z,89.76
2023-02-12T05:44:19.056Z,90.40
2023-02-12T05:47:20.115Z,91.07
2023-02-12T05:50:21.051Z,91.53
2023-02-12T05:53:27.080Z,92.53
2023-02-12T05:56:41.112Z,93.28
2023-02-12T05:59:41.195Z,93.80
2023-02-12T06:02:44.148Z,93.69
2023-02-12T06:05:46.794Z,93.45
2023-02-12T06:08:48.192Z,92.90
2023-02-12T06:11:52.143Z,92.22
2023-02-12T06:14:54.322Z,89.28
2023-02-12T06:17:55.100Z,88.38
2023-02-12T06:20:55.185Z,86.96
2023-02-12T06:23:56.207Z,86.18
2023-02-12T06:27:02.156Z,85.96
2023-02-12T06:30:02.414Z,85.77
2023-02-12T06:33:06.342Z,85.10
2023-02-12T06:36:09.302Z,84.36
2023-02-12T06:39:09.188Z,79.93
2023-02-12T06:42:09.164Z,73.90
2023-02-12T06:45:09.164Z,68.85
2023-02-12T06:48:10.243Z,65.04
2023-02-12T06:51:10.255Z,58.38
2023-02-12T06:54:11.320Z,57.37
2023-02-12T06:57:11.190Z,57.27
2023-02-12T07:00:13.505Z,58.12
2023-02-12T07:03:18.210Z,58.99
2023-02-12T07:06:26.217Z,59.76
2023-02-12T07:09:31.571Z,58.84
2023-02-12T07:12:43.277Z,59.06
2023-02-12T07:15:43.255Z,57.72
2023-02-12T07:18:49.263Z,56.33
2023-02-12T07:21:49.517Z,55.92
2023-02-12T07:24:53.534Z,56.07
2023-02-12T07:27:56.921Z,56.73
2023-02-12T07:31:01.703Z,58.01
2023-02-12T07:34:10.516Z,58.63
2023-02-12T07:37:10.281Z,59.55
2023-02-12T07:40:14.342Z,59.62
2023-02-12T07:43:14.520Z,58.87
2023-02-12T07:46:29.286Z,58.16
2023-02-12T07:49:34.269Z,58.67
2023-02-12T07:52:38.581Z,59.06
2023-02-12T07:55:38.256Z,58.97
2023-02-12T07:58:41.226Z,58.64
2023-02-12T08:01:51.295Z,57.80
2023-02-12T08:04:51.307Z,56.03
2023-02-12T08:07:53.279Z,52.46
2023-02-12T08:10:54.408Z,49.06
2023-02-12T08:13:57.474Z,45.47
2023-02-12T08:16:58.342Z,44.73
2023-02-12T08:20:01.350Z,43.80
2023-02-12T08:23:02.378Z,43.54
2023-02-12T08:26:06.321Z,41.52
2023-02-12T08:29:15.386Z,39.87
2023-02-12T08:32:21.586Z,38.46
2023-02-12T08:35:21.454Z,37.54
2023-02-12T08:38:22.635Z,36.65
2023-02-12T08:41:25.487Z,36.02
2023-02-12T08:44:25.561Z,35.76
2023-02-12T08:47:30.423Z,35.01
2023-02-12T08:50:31.464Z,34.67
2023-02-12T08:53:32.448Z,34.34
2023-02-12T08:56:36.437Z,34.04
2023-02-12T08:59:36.429Z,33.77
2023-02-12T09:02:36.516Z,34.08
2023-02-12T09:05:38.581Z,34.29
2023-02-12T09:08:42.793Z,34.12
2023-02-12T09:11:44.514Z,33.03
2023-02-12T09:14:45.489Z,32.44
2023-02-12T09:17:49.423Z,32.38
2023-02-12T09:20:53.460Z,31.88
2023-02-12T09:23:58.542Z,31.85
2023-02-12T09:26:59.537Z,31.89
2023-02-12T09:30:00.731Z,31.63
2023-02-12T09:33:02.596Z,31.27
2023-02-12T09:36:04.483Z,31.33
2023-02-12T09:39:05.595Z,30.96
2023-02-12T09:42:29.462Z,31.23
2023-02-12T09:45:39.519Z,31.32
2023-02-12T09:48:49.766Z,31.29
2023-02-12T09:51:51.504Z,31.48
2023-02-12T09:54:52.565Z,31.58
2023-02-12T09:57:54.959Z,31.04
2023-02-12T10:00:57.580Z,30.28
2023-02-12T10:03:59.563Z,29.70
2023-02-12T10:07:04.668Z,30.20
2023-02-12T10:10:26.604Z,30.32
2023-02-12T10:13:43.521Z,30.18
2023-02-12T10:16:59.552Z,29.61
2023-02-12T10:20:18.559Z,29.52
2023-02-12T10:23:44.666Z,29.03
2023-02-12T10:26:55.757Z,29.09
2023-02-12T10:29:58.617Z,29.22
2023-02-12T10:33:03.706Z,29.05
2023-02-12T10:36:04.572Z,29.00
2023-02-12T10:39:12.654Z,29.19
2023-02-12T10:42:31.658Z,29.33
2023-02-12T10:45:36.595Z,29.18
2023-02-12T10:48:51.651Z,28.69
2023-02-12T10:52:15.634Z,28.04
2023-02-12T10:55:16.647Z,28.12
2023-02-12T10:58:17.751Z,28.17
2023-02-12T11:01:17.778Z,27.62
2023-02-12T11:04:36.793Z,27.17
2023-02-12T11:07:40.936Z,27.18
2023-02-12T11:10:52.667Z,27.52
2023-02-12T11:13:59.666Z,27.81
2023-02-12T11:17:08.728Z,27.97
2023-02-12T11:20:22.123Z,28.02
2023-02-12T11:23:38.655Z,27.96
2023-02-12T11:26:42.670Z,28.04
2023-02-12T11:29:43.794Z,26.84
2023-02-12T11:32:45.960Z,26.78
2023-02-12T11:35:45.687Z,26.56
2023-02-12T11:38:47.726Z,26.71
2023-02-12T11:41:52.678Z,26.59
2023-02-12T11:44:54.867Z,26.64
2023-02-12T11:47:55.753Z,26.44
2023-02-12T11:51:02.720Z,26.22
2023-02-12T11:54:04.748Z,26.18
2023-02-12T11:57:05.781Z,26.15
2023-02-12T12:00:06.851Z,25.96
2023-02-12T12:03:26.971Z,25.69
2023-02-12T12:06:49.991Z,25.74
2023-02-12T12:09:57.821Z,26.15
2023-02-12T12:13:04.544Z,26.33
2023-02-12T12:17:06.106Z,26.16
2023-02-12T12:20:12.975Z,25.95
2023-02-12T12:23:18.761Z,25.84
2023-02-12T12:26:34.950Z,25.80
2023-02-12T12:29:39.986Z,25.30
2023-02-12T12:32:39.924Z,25.58
2023-02-12T12:35:50.858Z,25.57
2023-02-12T12:39:02.874Z,25.35
2023-02-12T12:42:35.801Z,25.65
2023-02-12T12:46:18.077Z,25.75
2023-02-12T12:49:42.161Z,25.47
2023-02-12T12:52:56.932Z,25.85
2023-02-12T12:55:59.940Z,26.05
2023-02-12T13:03:15.840Z,26.47
2023-02-12T13:06:22.045Z,26.62
2023-02-12T13:09:37.853Z,26.46
2023-02-12T13:12:38.975Z,26.51
2023-02-12T13:15:50.947Z,26.42
2023-02-12T13:19:03.442Z,26.53
2023-02-12T13:22:13.921Z,26.66
2023-02-12T13:25:35.882Z,26.33
2023-02-12T13:28:43.921Z,26.46
2023-02-12T13:31:46.088Z,26.76
2023-02-12T13:34:46.900Z,27.21
2023-02-12T13:37:55.171Z,27.29
2023-02-12T13:40:56.639Z,27.44
2023-02-12T13:44:17.799Z,27.64
2023-02-12T13:47:41.928Z,27.43
2023-02-12T13:51:00.790Z,27.69
2023-02-12T13:54:07.914Z,27.78
2023-02-12T13:57:10.957Z,28.11
2023-02-12T14:00:16.418Z,28.13
2023-02-12T14:03:22.325Z,28.14
2023-02-12T14:06:31.099Z,28.25
2023-02-12T14:09:36.178Z,28.90
2023-02-12T14:12:37.212Z,29.48
2023-02-12T14:15:45.152Z,30.11
2023-02-12T14:18:49.233Z,30.47
2023-02-12T14:21:50.990Z,30.77
2023-02-12T14:24:52.015Z,31.43
2023-02-12T14:28:03.161Z,32.11
2023-02-12T14:31:31.132Z,32.50
2023-02-12T14:34:35.308Z,33.12
2023-02-12T14:37:47.045Z,33.54
2023-02-12T14:40:51.483Z,33.80
2023-02-12T14:44:09.594Z,34.41
2023-02-12T14:47:11.042Z,34.98
2023-02-12T14:50:19.199Z,35.13
2023-02-12T14:53:41.132Z,35.31
2023-02-12T14:56:41.343Z,36.11
2023-02-12T14:59:45.074Z,35.98
2023-02-12T15:02:48.031Z,36.90
2023-02-12T15:05:51.328Z,37.70
2023-02-12T15:09:02.038Z,38.16
2023-02-12T15:12:12.065Z,38.84
2023-02-12T15:15:26.934Z,39.06
2023-02-12T15:18:40.123Z,39.57
2023-02-12T15:21:48.194Z,39.81
2023-02-12T15:24:53.581Z,40.67
2023-02-12T15:28:01.233Z,41.16
2023-02-12T15:31:02.605Z,42.11
2023-02-12T15:34:05.175Z,42.47
2023-02-12T15:37:07.133Z,42.67
2023-02-12T15:40:17.131Z,42.92
2023-02-12T15:43:19.174Z,43.43
2023-02-12T15:46:22.521Z,43.55
2023-02-12T15:49:32.424Z,43.79
2023-02-12T15:52:41.536Z,44.12
2023-02-12T15:55:48.216Z,44.17
2023-02-12T15:58:59.212Z,44.72
2023-02-12T16:02:14.139Z,44.77
2023-02-12T16:05:16.243Z,44.86
2023-02-12T16:08:24.159Z,44.94
2023-02-12T16:11:28.164Z,45.35
2023-02-12T16:14:52.249Z,45.19
2023-02-12T16:18:04.859Z,45.55
2023-02-12T16:21:24.438Z,45.70
2023-02-12T16:24:47.176Z,45.83
2023-02-12T16:27:50.448Z,45.93
2023-02-12T16:30:55.692Z,45.97
2023-02-12T16:34:06.726Z,46.04
2023-02-12T16:37:08.182Z,46.14
2023-02-12T16:40:10.329Z,46.07
2023-02-12T16:43:36.602Z,46.21
2023-02-12T16:46:41.145Z,46.25
2023-02-12T16:49:43.191Z,46.20
2023-02-12T16:52:51.240Z,46.48
2023-02-12T16:55:59.407Z,46.68
2023-02-12T16:59:06.472Z,46.84
2023-02-12T17:02:26.221Z,47.05
2023-02-12T17:05:29.404Z,47.25
2023-02-12T17:08:31.458Z,47.55
2023-02-12T17:11:35.228Z,47.47
2023-02-12T17:14:38.303Z,47.38
2023-02-12T17:17:39.390Z,47.47
2023-02-12T17:20:43.618Z,47.40
2023-02-12T17:23:44.654Z,47.64
2023-02-12T17:26:46.609Z,47.66
2023-02-12T17:29:48.360Z,47.70
2023-02-12T17:32:51.546Z,47.68
2023-02-12T17:35:53.492Z,47.61
2023-02-12T17:38:54.279Z,47.61
2023-02-12T17:41:58.708Z,47.67
2023-02-12T17:44:59.314Z,47.64
2023-02-12T17:48:00.341Z,47.71
2023-02-12T17:51:07.385Z,47.91
2023-02-12T17:54:12.374Z,47.93
2023-02-12T17:57:13.031Z,48.26
2023-02-12T18:00:16.434Z,48.39
2023-02-12T18:03:18.384Z,48.46
2023-02-12T18:06:22.692Z,48.62
2023-02-12T18:09:24.698Z,48.85
2023-02-12T18:12:24.433Z,49.00
2023-02-12T18:15:27.335Z,48.97
2023-02-12T18:18:28.529Z,48.96
2023-02-12T18:21:29.537Z,48.92
2023-02-12T18:24:30.463Z,49.12
2023-02-12T18:27:30.448Z,49.21
2023-02-12T18:30:31.558Z,49.40
2023-02-12T18:33:33.329Z,49.42
2023-02-12T18:36:36.401Z,49.52
2023-02-12T18:39:37.805Z,49.78
2023-02-12T18:42:39.364Z,50.00
2023-02-12T18:45:40.505Z,50.10
2023-02-12T18:48:42.428Z,50.26
2023-02-12T18:51:47.371Z,50.40
2023-02-12T18:54:50.497Z,50.47
2023-02-12T18:57:50.415Z,50.72
2023-02-12T19:00:51.409Z,51.03
2023-02-12T19:03:54.399Z,51.35
2023-02-12T19:06:54.993Z,51.41
2023-02-12T19:10:32.477Z,51.85
2023-02-12T19:13:33.424Z,52.11
2023-02-12T19:16:33.599Z,52.27
2023-02-12T19:19:38.825Z,52.42
2023-02-12T19:22:39.507Z,52.84
2023-02-12T19:25:50.663Z,53.04
2023-02-12T19:28:54.512Z,53.12
2023-02-12T19:31:56.990Z,53.30
2023-02-12T19:35:04.529Z,53.26
2023-02-12T19:38:07.472Z,53.36
2023-02-12T19:41:15.485Z,53.53
2023-02-12T19:44:23.763Z,53.52
2023-02-12T19:47:23.485Z,53.62
2023-02-12T19:50:35.351Z,53.79
2023-02-12T19:53:36.526Z,53.89
2023-02-12T19:56:36.496Z,54.18
2023-02-12T19:59:36.538Z,54.48
2023-02-12T20:02:37.563Z,54.69
2023-02-12T20:05:43.530Z,55.13
2023-02-12T20:08:43.561Z,55.57
2023-02-12T20:11:47.828Z,55.66
2023-02-12T20:14:50.608Z,55.80
2023-02-12T20:17:51.545Z,56.21
2023-02-12T20:20:54.620Z,56.45
2023-02-12T20:24:01.973Z,56.66
2023-02-12T20:27:03.836Z,56.94
2023-02-12T20:30:04.616Z,57.04
2023-02-12T20:33:07.571Z,57.24
2023-02-12T20:36:08.799Z,57.64
2023-02-12T20:39:09.614Z,57.85
2023-02-12T20:42:14.569Z,57.99
2023-02-12T20:45:20.824Z,58.54
2023-02-12T20:48:21.597Z,58.69
2023-02-12T20:51:23.591Z,58.69
2023-02-12T20:54:24.574Z,58.99
2023-02-12T20:57:31.628Z,59.32
2023-02-12T21:00:33.760Z,59.43
2023-02-12T21:03:36.581Z,59.55
2023-02-12T21:06:36.814Z,59.68
2023-02-12T21:09:29.779Z,59.65
2023-02-12T21:12:31.866Z,59.83
2023-02-12T21:15:32.686Z,59.89
2023-02-12T21:18:35.761Z,60.01
2023-02-12T21:21:41.621Z,60.05
2023-02-12T21:24:42.674Z,60.31
2023-02-12T21:27:46.588Z,60.51
2023-02-12T21:30:48.638Z,60.74
2023-02-12T21:33:55.697Z,61.15
2023-02-12T21:36:56.823Z,61.64
2023-02-12T21:39:57.632Z,61.57
2023-02-12T21:42:59.691Z,61.68
2023-02-12T21:46:04.822Z,61.78
2023-02-12T21:49:07.766Z,61.81
2023-02-12T21:52:16.134Z,61.85
2023-02-12T21:55:19.658Z,61.88
2023-02-12T21:58:19.682Z,61.89
2023-02-12T22:01:25.821Z,61.92
2023-02-12T22:04:27.724Z,61.95
2023-02-12T22:07:28.942Z,62.00
2023-02-12T22:10:32.071Z,61.89
2023-02-12T22:13:33.677Z,61.87
2023-02-12T22:16:38.929Z,61.74
2023-02-12T22:19:39.716Z,61.82
2023-02-12T22:22:40.722Z,61.80
2023-02-12T22:25:40.703Z,61.73
2023-02-12T22:28:42.751Z,61.96
2023-02-12T22:31:44.879Z,62.21
2023-02-12T22:34:46.829Z,62.47
2023-02-12T22:37:47.753Z,62.75
2023-02-12T22:40:49.749Z,63.04
2023-02-12T22:43:52.739Z,63.34
2023-02-12T22:46:54.795Z,63.53
2023-02-12T22:49:56.768Z,63.50
2023-02-12T22:52:56.742Z,63.77
2023-02-12T22:55:57.775Z,63.90
2023-02-12T22:58:58.756Z,63.90
2023-02-12T23:01:59.892Z,63.93
2023-02-12T23:04:59.771Z,64.13
2023-02-12T23:07:59.785Z,64.40
2023-02-12T23:11:01.829Z,64.52
2023-02-12T23:14:02.776Z,64.73
2023-02-12T23:17:03.846Z,64.69
2023-02-12T23:20:03.780Z,64.75
2023-02-12T23:23:06.836Z,64.85
2023-02-12T23:26:10.812Z,64.87
2023-02-12T23:29:10.840Z,65.01
2023-02-12T23:32:12.939Z,65.11
2023-02-12T23:35:12.933Z,65.47
2023-02-12T23:38:13.954Z,65.44
2023-02-12T23:41:13.989Z,65.57
2023-02-12T23:44:14.847Z,65.62
2023-02-12T23:47:15.891Z,65.84
2023-02-12T23:50:18.945Z,65.95
2023-02-12T23:53:20.059Z,66.10
2023-02-12T23:56:20.932Z,66.41
2023-02-12T23:59:22.927Z,66.79
